sensor_id;sensor_type;location;lat;lon;timestamp;P1;durP1;ratioP1;P2;durP2;ratioP2
76023;SDS011;64719;52.124;6.226;2023-08-01T00:00:37;13.35;;;5.53;;
76023;SDS011;64719;52.124;6.226;2023-08-01T00:03:03;17.35;;;7.00;;
76023;SDS011;64719;52.124;6.226;2023-08-01T00:05:30;13.85;;;6.45;;
76023;SDS011;64719;52.124;6.226;2023-08-01T00:07:57;15.40;;;7.45;;
76023;SDS011;64719;52.124;6.226;2023-08-01T00:10:23;16.55;;;7.07;;
76023;SDS011;64719;52.124;6.226;2023-08-01T00:12:51;18.55;;;8.15;;
76023;SDS011;64719;52.124;6.226;2023-08-01T00:15:18;14.82;;;7.32;;
76023;SDS011;64719;52.124;6.226;2023-08-01T00:17:45;17.58;;;8.05;;
76023;SDS011;64719;52.124;6.226;2023-08-01T00:20:11;16.00;;;8.18;;
76023;SDS011;64719;52.124;6.226;2023-08-01T00:22:38;18.90;;;7.88;;
76023;SDS011;64719;52.124;6.226;2023-08-01T00:25:05;16.48;;;7.35;;
76023;SDS011;64719;52.124;6.226;2023-08-01T00:27:32;18.90;;;8.35;;
76023;SDS011;64719;52.124;6.226;2023-08-01T00:30:00;12.40;;;6.88;;
76023;SDS011;64719;52.124;6.226;2023-08-01T00:32:26;15.18;;;7.85;;
76023;SDS011;64719;52.124;6.226;2023-08-01T00:34:53;11.50;;;5.93;;
76023;SDS011;64719;52.124;6.226;2023-08-01T00:37:19;10.68;;;6.00;;
76023;SDS011;64719;52.124;6.226;2023-08-01T00:39:46;11.43;;;6.35;;
76023;SDS011;64719;52.124;6.226;2023-08-01T00:42:13;13.15;;;6.45;;
76023;SDS011;64719;52.124;6.226;2023-08-01T00:44:39;12.55;;;6.22;;
76023;SDS011;64719;52.124;6.226;2023-08-01T00:47:07;11.93;;;5.97;;
76023;SDS011;64719;52.124;6.226;2023-08-01T00:49:34;9.80;;;6.03;;
76023;SDS011;64719;52.124;6.226;2023-08-01T00:52:01;9.27;;;5.05;;
76023;SDS011;64719;52.124;6.226;2023-08-01T00:54:28;9.73;;;5.60;;
76023;SDS011;64719;52.124;6.226;2023-08-01T00:57:01;11.20;;;5.80;;
76023;SDS011;64719;52.124;6.226;2023-08-01T00:59:28;8.45;;;5.38;;
76023;SDS011;64719;52.124;6.226;2023-08-01T01:01:54;11.65;;;4.75;;
76023;SDS011;64719;52.124;6.226;2023-08-01T01:04:22;9.02;;;4.95;;
76023;SDS011;64719;52.124;6.226;2023-08-01T01:06:51;9.80;;;4.63;;
76023;SDS011;64719;52.124;6.226;2023-08-01T01:09:23;11.50;;;5.22;;
76023;SDS011;64719;52.124;6.226;2023-08-01T01:11:50;11.48;;;5.05;;
76023;SDS011;64719;52.124;6.226;2023-08-01T01:14:16;9.27;;;4.97;;
76023;SDS011;64719;52.124;6.226;2023-08-01T01:16:43;10.80;;;5.32;;
76023;SDS011;64719;52.124;6.226;2023-08-01T01:19:09;9.75;;;4.82;;
76023;SDS011;64719;52.124;6.226;2023-08-01T01:21:37;7.72;;;4.57;;
76023;SDS011;64719;52.124;6.226;2023-08-01T01:24:05;10.68;;;5.25;;
76023;SDS011;64719;52.124;6.226;2023-08-01T01:26:34;9.88;;;4.82;;
76023;SDS011;64719;52.124;6.226;2023-08-01T01:29:02;10.00;;;4.30;;
76023;SDS011;64719;52.124;6.226;2023-08-01T01:31:30;9.88;;;3.83;;
76023;SDS011;64719;52.124;6.226;2023-08-01T01:33:58;9.23;;;4.05;;
76023;SDS011;64719;52.124;6.226;2023-08-01T01:36:25;8.57;;;4.03;;
76023;SDS011;64719;52.124;6.226;2023-08-01T01:38:53;7.80;;;3.70;;
76023;SDS011;64719;52.124;6.226;2023-08-01T01:41:20;8.25;;;3.75;;
76023;SDS011;64719;52.124;6.226;2023-08-01T01:43:47;8.65;;;3.35;;
76023;SDS011;64719;52.124;6.226;2023-08-01T01:46:14;8.23;;;3.72;;
76023;SDS011;64719;52.124;6.226;2023-08-01T01:48:40;9.68;;;3.67;;
76023;SDS011;64719;52.124;6.226;2023-08-01T01:51:07;7.28;;;3.55;;
76023;SDS011;64719;52.124;6.226;2023-08-01T01:53:34;8.43;;;3.45;;
76023;SDS011;64719;52.124;6.226;2023-08-01T01:56:02;7.10;;;3.22;;
76023;SDS011;64719;52.124;6.226;2023-08-01T02:00:55;8.27;;;3.45;;
76023;SDS011;64719;52.124;6.226;2023-08-01T02:05:50;7.03;;;3.40;;
76023;SDS011;64719;52.124;6.226;2023-08-01T02:08:16;8.80;;;4.15;;
76023;SDS011;64719;52.124;6.226;2023-08-01T02:10:43;9.35;;;4.10;;
76023;SDS011;64719;52.124;6.226;2023-08-01T02:13:11;11.60;;;4.00;;
76023;SDS011;64719;52.124;6.226;2023-08-01T02:15:37;9.23;;;4.00;;
76023;SDS011;64719;52.124;6.226;2023-08-01T02:18:04;9.05;;;4.93;;
76023;SDS011;64719;52.124;6.226;2023-08-01T02:20:30;10.80;;;4.55;;
76023;SDS011;64719;52.124;6.226;2023-08-01T02:22:57;12.70;;;4.75;;
76023;SDS011;64719;52.124;6.226;2023-08-01T02:25:24;17.95;;;5.65;;
76023;SDS011;64719;52.124;6.226;2023-08-01T02:27:50;11.07;;;4.72;;
76023;SDS011;64719;52.124;6.226;2023-08-01T02:30:18;14.43;;;5.70;;
76023;SDS011;64719;52.124;6.226;2023-08-01T02:32:45;10.70;;;5.28;;
76023;SDS011;64719;52.124;6.226;2023-08-01T02:35:11;11.63;;;4.95;;
76023;SDS011;64719;52.124;6.226;2023-08-01T02:37:38;14.23;;;6.45;;
76023;SDS011;64719;52.124;6.226;2023-08-01T02:40:05;14.60;;;6.68;;
76023;SDS011;64719;52.124;6.226;2023-08-01T02:42:35;16.27;;;6.60;;
76023;SDS011;64719;52.124;6.226;2023-08-01T02:45:02;15.30;;;7.35;;
76023;SDS011;64719;52.124;6.226;2023-08-01T02:47:30;16.38;;;6.45;;
76023;SDS011;64719;52.124;6.226;2023-08-01T02:49:57;16.45;;;7.22;;
76023;SDS011;64719;52.124;6.226;2023-08-01T02:52:23;18.13;;;7.05;;
76023;SDS011;64719;52.124;6.226;2023-08-01T02:54:50;15.93;;;6.68;;
76023;SDS011;64719;52.124;6.226;2023-08-01T02:57:16;16.70;;;6.80;;
76023;SDS011;64719;52.124;6.226;2023-08-01T02:59:43;18.08;;;7.55;;
76023;SDS011;64719;52.124;6.226;2023-08-01T03:02:09;20.67;;;8.00;;
76023;SDS011;64719;52.124;6.226;2023-08-01T03:04:37;18.85;;;8.38;;
76023;SDS011;64719;52.124;6.226;2023-08-01T03:07:04;20.98;;;8.07;;
76023;SDS011;64719;52.124;6.226;2023-08-01T03:09:31;23.63;;;8.60;;
76023;SDS011;64719;52.124;6.226;2023-08-01T03:11:58;22.15;;;7.10;;
76023;SDS011;64719;52.124;6.226;2023-08-01T03:14:25;18.52;;;8.10;;
76023;SDS011;64719;52.124;6.226;2023-08-01T03:16:51;22.60;;;8.32;;
76023;SDS011;64719;52.124;6.226;2023-08-01T03:19:18;25.65;;;8.98;;
76023;SDS011;64719;52.124;6.226;2023-08-01T03:21:46;19.48;;;8.63;;
76023;SDS011;64719;52.124;6.226;2023-08-01T03:24:12;19.67;;;8.73;;
76023;SDS011;64719;52.124;6.226;2023-08-01T03:26:39;23.40;;;8.75;;
76023;SDS011;64719;52.124;6.226;2023-08-01T03:29:05;19.48;;;7.97;;
76023;SDS011;64719;52.124;6.226;2023-08-01T03:31:32;24.50;;;8.75;;
76023;SDS011;64719;52.124;6.226;2023-08-01T03:33:58;23.75;;;8.80;;
76023;SDS011;64719;52.124;6.226;2023-08-01T03:36:25;20.83;;;7.78;;
76023;SDS011;64719;52.124;6.226;2023-08-01T03:38:53;23.95;;;7.70;;
76023;SDS011;64719;52.124;6.226;2023-08-01T03:41:19;25.25;;;8.30;;
76023;SDS011;64719;52.124;6.226;2023-08-01T03:43:46;20.85;;;8.40;;
76023;SDS011;64719;52.124;6.226;2023-08-01T03:46:12;23.73;;;8.50;;
76023;SDS011;64719;52.124;6.226;2023-08-01T03:48:39;22.83;;;8.18;;
76023;SDS011;64719;52.124;6.226;2023-08-01T03:51:05;19.52;;;7.82;;
76023;SDS011;64719;52.124;6.226;2023-08-01T03:53:32;22.30;;;7.60;;
76023;SDS011;64719;52.124;6.226;2023-08-01T03:56:00;20.20;;;7.53;;
76023;SDS011;64719;52.124;6.226;2023-08-01T03:58:27;21.17;;;7.10;;
76023;SDS011;64719;52.124;6.226;2023-08-01T04:00:53;18.73;;;7.07;;
76023;SDS011;64719;52.124;6.226;2023-08-01T04:03:20;20.73;;;7.78;;
76023;SDS011;64719;52.124;6.226;2023-08-01T04:05:47;17.85;;;7.50;;
76023;SDS011;64719;52.124;6.226;2023-08-01T04:08:13;17.08;;;6.70;;
76023;SDS011;64719;52.124;6.226;2023-08-01T04:10:40;19.85;;;7.07;;
76023;SDS011;64719;52.124;6.226;2023-08-01T04:13:08;12.65;;;6.65;;
76023;SDS011;64719;52.124;6.226;2023-08-01T04:15:34;16.58;;;7.68;;
76023;SDS011;64719;52.124;6.226;2023-08-01T04:18:01;13.15;;;5.32;;
76023;SDS011;64719;52.124;6.226;2023-08-01T04:20:27;14.40;;;4.90;;
76023;SDS011;64719;52.124;6.226;2023-08-01T04:22:54;11.65;;;5.10;;
76023;SDS011;64719;52.124;6.226;2023-08-01T04:25:20;5.93;;;3.70;;
76023;SDS011;64719;52.124;6.226;2023-08-01T04:30:16;9.07;;;3.42;;
76023;SDS011;64719;52.124;6.226;2023-08-01T04:32:43;8.43;;;2.97;;
76023;SDS011;64719;52.124;6.226;2023-08-01T04:35:10;8.38;;;3.15;;
76023;SDS011;64719;52.124;6.226;2023-08-01T04:37:36;6.70;;;3.45;;
76023;SDS011;64719;52.124;6.226;2023-08-01T04:40:03;8.57;;;3.47;;
76023;SDS011;64719;52.124;6.226;2023-08-01T04:42:30;11.07;;;3.40;;
76023;SDS011;64719;52.124;6.226;2023-08-01T04:44:57;5.55;;;3.53;;
76023;SDS011;64719;52.124;6.226;2023-08-01T04:47:25;9.85;;;3.20;;
76023;SDS011;64719;52.124;6.226;2023-08-01T04:49:51;9.32;;;4.10;;
76023;SDS011;64719;52.124;6.226;2023-08-01T04:52:18;8.25;;;3.97;;
76023;SDS011;64719;52.124;6.226;2023-08-01T04:54:44;9.77;;;3.90;;
76023;SDS011;64719;52.124;6.226;2023-08-01T04:57:11;9.80;;;3.70;;
76023;SDS011;64719;52.124;6.226;2023-08-01T04:59:37;9.23;;;3.97;;
76023;SDS011;64719;52.124;6.226;2023-08-01T05:02:04;10.13;;;4.43;;
76023;SDS011;64719;52.124;6.226;2023-08-01T05:04:32;7.38;;;4.10;;
76023;SDS011;64719;52.124;6.226;2023-08-01T05:06:58;8.20;;;3.70;;
76023;SDS011;64719;52.124;6.226;2023-08-01T05:09:25;8.73;;;3.90;;
76023;SDS011;64719;52.124;6.226;2023-08-01T05:11:51;10.15;;;3.97;;
76023;SDS011;64719;52.124;6.226;2023-08-01T05:14:18;7.85;;;3.97;;
76023;SDS011;64719;52.124;6.226;2023-08-01T05:16:45;9.00;;;3.97;;
76023;SDS011;64719;52.124;6.226;2023-08-01T05:19:12;7.43;;;3.80;;
76023;SDS011;64719;52.124;6.226;2023-08-01T05:21:39;17.88;;;5.28;;
76023;SDS011;64719;52.124;6.226;2023-08-01T05:24:06;9.80;;;3.80;;
76023;SDS011;64719;52.124;6.226;2023-08-01T05:26:32;10.70;;;4.63;;
76023;SDS011;64719;52.124;6.226;2023-08-01T05:28:59;11.35;;;4.07;;
76023;SDS011;64719;52.124;6.226;2023-08-01T05:31:26;8.90;;;4.10;;
76023;SDS011;64719;52.124;6.226;2023-08-01T05:33:52;6.45;;;3.78;;
76023;SDS011;64719;52.124;6.226;2023-08-01T05:36:19;9.13;;;4.20;;
76023;SDS011;64719;52.124;6.226;2023-08-01T05:38:47;11.18;;;4.00;;
76023;SDS011;64719;52.124;6.226;2023-08-01T05:41:13;9.05;;;4.38;;
76023;SDS011;64719;52.124;6.226;2023-08-01T05:43:40;8.55;;;3.75;;
76023;SDS011;64719;52.124;6.226;2023-08-01T05:46:06;10.00;;;4.13;;
76023;SDS011;64719;52.124;6.226;2023-08-01T05:48:33;6.05;;;3.63;;
76023;SDS011;64719;52.124;6.226;2023-08-01T05:50:59;11.80;;;4.45;;
76023;SDS011;64719;52.124;6.226;2023-08-01T05:53:26;8.93;;;3.85;;
76023;SDS011;64719;52.124;6.226;2023-08-01T05:55:55;7.97;;;3.45;;
76023;SDS011;64719;52.124;6.226;2023-08-01T05:58:21;8.05;;;3.58;;
76023;SDS011;64719;52.124;6.226;2023-08-01T06:00:48;6.90;;;3.58;;
76023;SDS011;64719;52.124;6.226;2023-08-01T06:03:15;11.70;;;3.78;;
76023;SDS011;64719;52.124;6.226;2023-08-01T06:05:42;8.77;;;4.78;;
76023;SDS011;64719;52.124;6.226;2023-08-01T06:08:09;10.63;;;4.28;;
76023;SDS011;64719;52.124;6.226;2023-08-01T06:10:36;11.23;;;4.30;;
76023;SDS011;64719;52.124;6.226;2023-08-01T06:13:04;8.60;;;4.13;;
76023;SDS011;64719;52.124;6.226;2023-08-01T06:15:31;12.70;;;4.38;;
76023;SDS011;64719;52.124;6.226;2023-08-01T06:17:57;8.90;;;4.05;;
76023;SDS011;64719;52.124;6.226;2023-08-01T06:20:24;8.07;;;4.10;;
76023;SDS011;64719;52.124;6.226;2023-08-01T06:22:51;15.65;;;5.57;;
76023;SDS011;64719;52.124;6.226;2023-08-01T06:25:17;10.90;;;4.30;;
76023;SDS011;64719;52.124;6.226;2023-08-01T06:27:44;10.60;;;4.38;;
76023;SDS011;64719;52.124;6.226;2023-08-01T06:30:12;10.13;;;4.00;;
76023;SDS011;64719;52.124;6.226;2023-08-01T06:32:39;9.60;;;4.53;;
76023;SDS011;64719;52.124;6.226;2023-08-01T06:35:05;8.57;;;4.20;;
76023;SDS011;64719;52.124;6.226;2023-08-01T06:37:32;11.00;;;4.22;;
76023;SDS011;64719;52.124;6.226;2023-08-01T06:39:59;11.15;;;4.35;;
76023;SDS011;64719;52.124;6.226;2023-08-01T06:42:27;9.82;;;4.22;;
76023;SDS011;64719;52.124;6.226;2023-08-01T06:44:54;9.25;;;4.93;;
76023;SDS011;64719;52.124;6.226;2023-08-01T06:47:22;10.13;;;4.07;;
76023;SDS011;64719;52.124;6.226;2023-08-01T06:49:48;8.38;;;3.22;;
76023;SDS011;64719;52.124;6.226;2023-08-01T06:52:15;10.32;;;3.72;;
76023;SDS011;64719;52.124;6.226;2023-08-01T06:54:42;6.93;;;3.25;;
76023;SDS011;64719;52.124;6.226;2023-08-01T06:57:08;7.55;;;3.83;;
76023;SDS011;64719;52.124;6.226;2023-08-01T06:59:35;10.90;;;4.22;;
76023;SDS011;64719;52.124;6.226;2023-08-01T07:02:01;7.68;;;3.15;;
76023;SDS011;64719;52.124;6.226;2023-08-01T07:04:29;10.95;;;3.78;;
76023;SDS011;64719;52.124;6.226;2023-08-01T07:09:22;10.63;;;3.58;;
76023;SDS011;64719;52.124;6.226;2023-08-01T07:11:49;9.57;;;3.22;;
76023;SDS011;64719;52.124;6.226;2023-08-01T07:14:15;6.90;;;3.40;;
76023;SDS011;64719;52.124;6.226;2023-08-01T07:16:42;6.85;;;2.75;;
76023;SDS011;64719;52.124;6.226;2023-08-01T07:19:09;6.68;;;2.90;;
76023;SDS011;64719;52.124;6.226;2023-08-01T07:21:37;6.22;;;2.80;;
76023;SDS011;64719;52.124;6.226;2023-08-01T07:24:04;8.93;;;3.08;;
76023;SDS011;64719;52.124;6.226;2023-08-01T07:26:31;7.03;;;2.80;;
76023;SDS011;64719;52.124;6.226;2023-08-01T07:28:57;5.20;;;2.83;;
76023;SDS011;64719;52.124;6.226;2023-08-01T07:31:24;8.10;;;2.83;;
76023;SDS011;64719;52.124;6.226;2023-08-01T07:33:51;10.43;;;2.88;;
76023;SDS011;64719;52.124;6.226;2023-08-01T07:36:17;7.43;;;2.75;;
76023;SDS011;64719;52.124;6.226;2023-08-01T07:38:45;7.07;;;2.30;;
76023;SDS011;64719;52.124;6.226;2023-08-01T07:41:12;10.02;;;2.90;;
76023;SDS011;64719;52.124;6.226;2023-08-01T07:43:38;5.78;;;2.60;;
76023;SDS011;64719;52.124;6.226;2023-08-01T07:46:05;6.10;;;2.53;;
76023;SDS011;64719;52.124;6.226;2023-08-01T07:48:33;8.75;;;2.60;;
76023;SDS011;64719;52.124;6.226;2023-08-01T07:51:00;7.00;;;2.63;;
76023;SDS011;64719;52.124;6.226;2023-08-01T07:53:28;7.88;;;2.70;;
76023;SDS011;64719;52.124;6.226;2023-08-01T07:55:56;9.82;;;2.60;;
76023;SDS011;64719;52.124;6.226;2023-08-01T07:58:22;7.03;;;2.75;;
76023;SDS011;64719;52.124;6.226;2023-08-01T08:00:49;9.55;;;3.08;;
76023;SDS011;64719;52.124;6.226;2023-08-01T08:03:16;4.72;;;2.00;;
76023;SDS011;64719;52.124;6.226;2023-08-01T08:05:42;7.75;;;2.25;;
76023;SDS011;64719;52.124;6.226;2023-08-01T08:08:09;7.57;;;2.20;;
76023;SDS011;64719;52.124;6.226;2023-08-01T08:10:36;4.97;;;2.13;;
76023;SDS011;64719;52.124;6.226;2023-08-01T08:13:04;8.00;;;2.67;;
76023;SDS011;64719;52.124;6.226;2023-08-01T08:15:31;10.18;;;2.53;;
76023;SDS011;64719;52.124;6.226;2023-08-01T08:17:59;6.70;;;2.55;;
76023;SDS011;64719;52.124;6.226;2023-08-01T08:20:29;6.30;;;2.05;;
76023;SDS011;64719;52.124;6.226;2023-08-01T08:22:55;7.20;;;2.28;;
76023;SDS011;64719;52.124;6.226;2023-08-01T08:25:22;5.32;;;2.03;;
76023;SDS011;64719;52.124;6.226;2023-08-01T08:27:49;7.13;;;2.50;;
76023;SDS011;64719;52.124;6.226;2023-08-01T08:30:17;7.90;;;2.63;;
76023;SDS011;64719;52.124;6.226;2023-08-01T08:32:43;6.13;;;1.80;;
76023;SDS011;64719;52.124;6.226;2023-08-01T08:35:10;6.38;;;2.38;;
76023;SDS011;64719;52.124;6.226;2023-08-01T08:37:37;5.38;;;2.10;;
76023;SDS011;64719;52.124;6.226;2023-08-01T08:40:04;5.25;;;2.35;;
76023;SDS011;64719;52.124;6.226;2023-08-01T08:42:33;3.70;;;1.90;;
76023;SDS011;64719;52.124;6.226;2023-08-01T08:45:00;7.80;;;3.03;;
76023;SDS011;64719;52.124;6.226;2023-08-01T08:47:29;4.28;;;1.98;;
76023;SDS011;64719;52.124;6.226;2023-08-01T08:50:00;6.50;;;2.13;;
76023;SDS011;64719;52.124;6.226;2023-08-01T08:52:28;6.80;;;2.38;;
76023;SDS011;64719;52.124;6.226;2023-08-01T08:54:55;4.97;;;2.10;;
76023;SDS011;64719;52.124;6.226;2023-08-01T08:57:22;5.65;;;2.20;;
76023;SDS011;64719;52.124;6.226;2023-08-01T08:59:49;4.22;;;2.05;;
76023;SDS011;64719;52.124;6.226;2023-08-01T09:02:17;5.32;;;1.90;;
76023;SDS011;64719;52.124;6.226;2023-08-01T09:04:46;5.53;;;2.20;;
76023;SDS011;64719;52.124;6.226;2023-08-01T09:07:13;4.68;;;2.20;;
76023;SDS011;64719;52.124;6.226;2023-08-01T09:09:46;5.20;;;2.33;;
76023;SDS011;64719;52.124;6.226;2023-08-01T09:12:12;7.43;;;1.92;;
76023;SDS011;64719;52.124;6.226;2023-08-01T09:14:39;5.35;;;1.88;;
76023;SDS011;64719;52.124;6.226;2023-08-01T09:17:07;4.88;;;1.90;;
76023;SDS011;64719;52.124;6.226;2023-08-01T09:19:34;4.47;;;1.83;;
76023;SDS011;64719;52.124;6.226;2023-08-01T09:22:09;9.98;;;2.60;;
76023;SDS011;64719;52.124;6.226;2023-08-01T09:24:37;6.68;;;2.25;;
76023;SDS011;64719;52.124;6.226;2023-08-01T09:27:04;5.93;;;2.25;;
76023;SDS011;64719;52.124;6.226;2023-08-01T09:29:31;6.82;;;2.55;;
76023;SDS011;64719;52.124;6.226;2023-08-01T09:31:58;6.43;;;2.40;;
76023;SDS011;64719;52.124;6.226;2023-08-01T09:34:24;4.20;;;1.85;;
76023;SDS011;64719;52.124;6.226;2023-08-01T09:36:57;4.68;;;2.08;;
76023;SDS011;64719;52.124;6.226;2023-08-01T09:39:26;4.38;;;2.08;;
76023;SDS011;64719;52.124;6.226;2023-08-01T09:41:56;5.43;;;1.85;;
76023;SDS011;64719;52.124;6.226;2023-08-01T09:44:23;5.10;;;2.05;;
76023;SDS011;64719;52.124;6.226;2023-08-01T09:46:55;5.82;;;2.28;;
76023;SDS011;64719;52.124;6.226;2023-08-01T09:49:23;3.88;;;1.50;;
76023;SDS011;64719;52.124;6.226;2023-08-01T09:51:50;7.55;;;1.90;;
76023;SDS011;64719;52.124;6.226;2023-08-01T09:54:17;5.80;;;1.90;;
76023;SDS011;64719;52.124;6.226;2023-08-01T09:56:46;6.55;;;2.20;;
76023;SDS011;64719;52.124;6.226;2023-08-01T09:59:16;5.38;;;2.20;;
76023;SDS011;64719;52.124;6.226;2023-08-01T10:01:46;4.90;;;2.00;;
76023;SDS011;64719;52.124;6.226;2023-08-01T10:04:15;4.20;;;1.85;;
76023;SDS011;64719;52.124;6.226;2023-08-01T10:06:43;3.55;;;1.60;;
76023;SDS011;64719;52.124;6.226;2023-08-01T10:09:15;7.20;;;1.80;;
76023;SDS011;64719;52.124;6.226;2023-08-01T10:11:43;7.30;;;2.55;;
76023;SDS011;64719;52.124;6.226;2023-08-01T10:14:12;3.97;;;2.17;;
76023;SDS011;64719;52.124;6.226;2023-08-01T10:16:39;5.57;;;2.38;;
76023;SDS011;64719;52.124;6.226;2023-08-01T10:19:08;5.90;;;2.05;;
76023;SDS011;64719;52.124;6.226;2023-08-01T10:21:37;6.28;;;2.05;;
76023;SDS011;64719;52.124;6.226;2023-08-01T10:24:04;5.97;;;2.17;;
76023;SDS011;64719;52.124;6.226;2023-08-01T10:26:32;5.78;;;2.05;;
76023;SDS011;64719;52.124;6.226;2023-08-01T10:29:00;5.90;;;2.17;;
76023;SDS011;64719;52.124;6.226;2023-08-01T10:34:03;4.68;;;1.92;;
76023;SDS011;64719;52.124;6.226;2023-08-01T10:36:31;4.10;;;1.80;;
76023;SDS011;64719;52.124;6.226;2023-08-01T10:38:59;5.95;;;1.85;;
76023;SDS011;64719;52.124;6.226;2023-08-01T10:41:28;5.78;;;2.22;;
76023;SDS011;64719;52.124;6.226;2023-08-01T10:44:06;4.20;;;1.75;;
76023;SDS011;64719;52.124;6.226;2023-08-01T10:46:48;8.07;;;1.83;;
76023;SDS011;64719;52.124;6.226;2023-08-01T10:49:15;4.70;;;1.88;;
76023;SDS011;64719;52.124;6.226;2023-08-01T10:51:42;6.18;;;2.47;;
76023;SDS011;64719;52.124;6.226;2023-08-01T10:54:17;3.80;;;1.65;;
76023;SDS011;64719;52.124;6.226;2023-08-01T10:56:46;3.88;;;1.60;;
76023;SDS011;64719;52.124;6.226;2023-08-01T10:59:12;4.68;;;1.73;;
76023;SDS011;64719;52.124;6.226;2023-08-01T11:01:43;4.03;;;1.70;;
76023;SDS011;64719;52.124;6.226;2023-08-01T11:04:14;7.13;;;1.77;;
76023;SDS011;64719;52.124;6.226;2023-08-01T11:06:45;3.83;;;1.67;;
76023;SDS011;64719;52.124;6.226;2023-08-01T11:09:16;5.45;;;1.70;;
76023;SDS011;64719;52.124;6.226;2023-08-01T11:11:44;3.78;;;1.50;;
76023;SDS011;64719;52.124;6.226;2023-08-01T11:14:14;5.38;;;1.70;;
76023;SDS011;64719;52.124;6.226;2023-08-01T11:16:41;4.53;;;1.80;;
76023;SDS011;64719;52.124;6.226;2023-08-01T11:19:18;5.13;;;1.77;;
76023;SDS011;64719;52.124;6.226;2023-08-01T11:21:46;5.40;;;1.90;;
76023;SDS011;64719;52.124;6.226;2023-08-01T11:24:13;3.33;;;1.70;;
76023;SDS011;64719;52.124;6.226;2023-08-01T11:26:40;6.78;;;1.98;;
76023;SDS011;64719;52.124;6.226;2023-08-01T11:29:08;12.10;;;2.03;;
76023;SDS011;64719;52.124;6.226;2023-08-01T11:31:36;4.97;;;1.42;;
76023;SDS011;64719;52.124;6.226;2023-08-01T11:34:02;2.85;;;1.20;;
76023;SDS011;64719;52.124;6.226;2023-08-01T11:36:30;4.03;;;1.30;;
76023;SDS011;64719;52.124;6.226;2023-08-01T11:38:57;3.97;;;1.40;;
76023;SDS011;64719;52.124;6.226;2023-08-01T11:41:25;3.67;;;1.52;;
76023;SDS011;64719;52.124;6.226;2023-08-01T11:46:20;4.38;;;1.58;;
76023;SDS011;64719;52.124;6.226;2023-08-01T11:48:47;3.95;;;1.40;;
76023;SDS011;64719;52.124;6.226;2023-08-01T11:51:15;4.35;;;1.73;;
76023;SDS011;64719;52.124;6.226;2023-08-01T11:53:43;3.47;;;1.42;;
76023;SDS011;64719;52.124;6.226;2023-08-01T11:56:19;3.95;;;1.35;;
76023;SDS011;64719;52.124;6.226;2023-08-01T11:58:46;3.25;;;1.10;;
76023;SDS011;64719;52.124;6.226;2023-08-01T12:01:13;2.53;;;1.20;;
76023;SDS011;64719;52.124;6.226;2023-08-01T12:06:10;3.90;;;1.10;;
76023;SDS011;64719;52.124;6.226;2023-08-01T12:08:38;3.72;;;1.10;;
76023;SDS011;64719;52.124;6.226;2023-08-01T12:11:16;4.25;;;1.10;;
76023;SDS011;64719;52.124;6.226;2023-08-01T12:13:43;3.75;;;1.38;;
76023;SDS011;64719;52.124;6.226;2023-08-01T12:16:10;4.03;;;1.30;;
76023;SDS011;64719;52.124;6.226;2023-08-01T12:18:38;3.97;;;1.40;;
76023;SDS011;64719;52.124;6.226;2023-08-01T12:21:05;5.18;;;1.38;;
76023;SDS011;64719;52.124;6.226;2023-08-01T12:23:32;3.95;;;1.40;;
76023;SDS011;64719;52.124;6.226;2023-08-01T12:25:58;4.03;;;1.55;;
76023;SDS011;64719;52.124;6.226;2023-08-01T12:28:26;3.33;;;1.40;;
76023;SDS011;64719;52.124;6.226;2023-08-01T12:30:53;3.20;;;1.50;;
76023;SDS011;64719;52.124;6.226;2023-08-01T12:33:19;2.83;;;1.38;;
76023;SDS011;64719;52.124;6.226;2023-08-01T12:35:47;4.55;;;1.45;;
76023;SDS011;64719;52.124;6.226;2023-08-01T12:38:13;3.85;;;1.65;;
76023;SDS011;64719;52.124;6.226;2023-08-01T12:40:40;3.63;;;1.40;;
76023;SDS011;64719;52.124;6.226;2023-08-01T12:43:07;2.60;;;1.17;;
76023;SDS011;64719;52.124;6.226;2023-08-01T12:45:34;3.67;;;1.70;;
76023;SDS011;64719;52.124;6.226;2023-08-01T12:48:01;3.17;;;1.10;;
76023;SDS011;64719;52.124;6.226;2023-08-01T12:50:28;3.22;;;1.10;;
76023;SDS011;64719;52.124;6.226;2023-08-01T12:52:54;2.08;;;1.00;;
76023;SDS011;64719;52.124;6.226;2023-08-01T12:55:21;4.57;;;1.73;;
76023;SDS011;64719;52.124;6.226;2023-08-01T12:57:47;4.10;;;1.23;;
76023;SDS011;64719;52.124;6.226;2023-08-01T13:00:14;4.28;;;1.50;;
76023;SDS011;64719;52.124;6.226;2023-08-01T13:02:42;4.65;;;1.35;;
76023;SDS011;64719;52.124;6.226;2023-08-01T13:05:09;4.45;;;1.20;;
76023;SDS011;64719;52.124;6.226;2023-08-01T13:07:36;5.78;;;1.63;;
76023;SDS011;64719;52.124;6.226;2023-08-01T13:10:03;4.07;;;1.50;;
76023;SDS011;64719;52.124;6.226;2023-08-01T13:12:30;4.22;;;1.50;;
76023;SDS011;64719;52.124;6.226;2023-08-01T13:14:56;5.40;;;1.65;;
76023;SDS011;64719;52.124;6.226;2023-08-01T13:17:23;4.97;;;1.60;;
76023;SDS011;64719;52.124;6.226;2023-08-01T13:19:51;5.20;;;1.55;;
76023;SDS011;64719;52.124;6.226;2023-08-01T13:22:17;4.90;;;1.42;;
76023;SDS011;64719;52.124;6.226;2023-08-01T13:24:45;5.00;;;1.83;;
76023;SDS011;64719;52.124;6.226;2023-08-01T13:27:12;6.45;;;1.52;;
76023;SDS011;64719;52.124;6.226;2023-08-01T13:29:38;9.30;;;1.98;;
76023;SDS011;64719;52.124;6.226;2023-08-01T13:32:06;4.93;;;1.52;;
76023;SDS011;64719;52.124;6.226;2023-08-01T13:37:00;4.32;;;1.45;;
76023;SDS011;64719;52.124;6.226;2023-08-01T13:39:27;5.32;;;1.60;;
76023;SDS011;64719;52.124;6.226;2023-08-01T13:41:54;6.75;;;1.80;;
76023;SDS011;64719;52.124;6.226;2023-08-01T13:44:20;4.63;;;1.48;;
76023;SDS011;64719;52.124;6.226;2023-08-01T13:46:47;6.38;;;1.60;;
76023;SDS011;64719;52.124;6.226;2023-08-01T13:49:13;6.32;;;1.67;;
76023;SDS011;64719;52.124;6.226;2023-08-01T13:51:40;4.40;;;1.60;;
76023;SDS011;64719;52.124;6.226;2023-08-01T13:54:08;5.28;;;1.75;;
76023;SDS011;64719;52.124;6.226;2023-08-01T13:56:34;3.78;;;1.48;;
76023;SDS011;64719;52.124;6.226;2023-08-01T13:59:01;5.97;;;1.83;;
76023;SDS011;64719;52.124;6.226;2023-08-01T14:01:28;4.72;;;2.03;;
76023;SDS011;64719;52.124;6.226;2023-08-01T14:03:55;6.50;;;1.70;;
76023;SDS011;64719;52.124;6.226;2023-08-01T14:06:21;3.65;;;1.88;;
76023;SDS011;64719;52.124;6.226;2023-08-01T14:08:48;7.00;;;1.50;;
76023;SDS011;64719;52.124;6.226;2023-08-01T14:11:16;5.22;;;1.55;;
76023;SDS011;64719;52.124;6.226;2023-08-01T14:13:43;6.25;;;1.75;;
76023;SDS011;64719;52.124;6.226;2023-08-01T14:16:09;5.13;;;1.45;;
76023;SDS011;64719;52.124;6.226;2023-08-01T14:18:36;4.15;;;1.30;;
76023;SDS011;64719;52.124;6.226;2023-08-01T14:21:02;5.03;;;1.40;;
76023;SDS011;64719;52.124;6.226;2023-08-01T14:23:29;7.25;;;1.75;;
76023;SDS011;64719;52.124;6.226;2023-08-01T14:25:57;4.05;;;1.25;;
76023;SDS011;64719;52.124;6.226;2023-08-01T14:30:52;4.40;;;1.30;;
76023;SDS011;64719;52.124;6.226;2023-08-01T14:33:18;4.18;;;1.60;;
76023;SDS011;64719;52.124;6.226;2023-08-01T14:35:46;3.00;;;1.35;;
76023;SDS011;64719;52.124;6.226;2023-08-01T14:38:12;4.82;;;1.30;;
76023;SDS011;64719;52.124;6.226;2023-08-01T14:40:39;5.93;;;1.40;;
76023;SDS011;64719;52.124;6.226;2023-08-01T14:43:06;5.15;;;1.70;;
76023;SDS011;64719;52.124;6.226;2023-08-01T14:45:36;3.90;;;1.40;;
76023;SDS011;64719;52.124;6.226;2023-08-01T14:48:04;4.78;;;1.60;;
76023;SDS011;64719;52.124;6.226;2023-08-01T14:50:30;6.30;;;1.52;;
76023;SDS011;64719;52.124;6.226;2023-08-01T14:52:57;4.70;;;2.22;;
76023;SDS011;64719;52.124;6.226;2023-08-01T14:55:24;7.45;;;1.83;;
76023;SDS011;64719;52.124;6.226;2023-08-01T14:57:50;5.18;;;1.67;;
76023;SDS011;64719;52.124;6.226;2023-08-01T15:00:17;5.90;;;1.90;;
76023;SDS011;64719;52.124;6.226;2023-08-01T15:02:45;5.25;;;1.80;;
76023;SDS011;64719;52.124;6.226;2023-08-01T15:05:13;8.43;;;1.70;;